Time;durP1;ratioP1;P1;durP2;ratioP2;P2;SDS_P1;SDS_P2;PMS_P1;PMS_P2;Temp;Humidity;BMP_temperature;BMP_pressure;BME280_temperature;BME280_humidity;BME280_pressure;Samples;Min_cycle;Max_cycle;Signal;HPM_P1;HPM_P2
2023/09/25 00:01:00;;;;;;;4.25;3.10;;;13.40;99.90;;;;;;4997105;28;20037;-79
2023/09/25 00:03:25;;;;;;;4.00;2.83;;;13.40;99.90;;;;;;5013129;28;20514;-78
2023/09/25 00:05:51;;;;;;;4.55;3.05;;;13.40;99.90;;;;;;5029591;28;20041;-78
2023/09/25 00:08:17;;;;;;;3.65;3.08;;;13.40;99.90;;;;;;4984814;28;20481;-78
2023/09/25 00:10:42;;;;;;;3.28;2.90;;;13.40;99.90;;;;;;4996724;28;20049;-79
2023/09/25 00:13:08;;;;;;;4.72;3.03;;;13.30;99.90;;;;;;5012671;28;20164;-78
2023/09/25 00:15:34;;;;;;;5.80;3.20;;;13.40;99.90;;;;;;5013099;28;20041;-79
2023/09/25 00:18:00;;;;;;;3.67;3.10;;;13.30;99.90;;;;;;5013041;28;20065;-78
2023/09/25 00:20:26;;;;;;;4.07;3.10;;;13.40;99.90;;;;;;5012817;28;20052;-79
2023/09/25 00:22:52;;;;;;;4.15;3.00;;;13.40;99.90;;;;;;4982183;28;20064;-78
2023/09/25 00:25:22;;;;;;;5.78;3.35;;;13.40;99.90;;;;;;5012690;28;20429;-78
2023/09/25 00:27:48;;;;;;;5.00;3.13;;;13.40;99.90;;;;;;4997496;28;20047;-79
2023/09/25 00:30:14;;;;;;;4.80;3.20;;;13.40;99.90;;;;;;5029533;28;20108;-78
2023/09/25 00:32:40;;;;;;;3.53;3.22;;;13.40;99.90;;;;;;5029232;28;20041;-78
2023/09/25 00:35:10;;;;;;;4.40;3.00;;;13.50;99.90;;;;;;5012745;28;20129;-78
2023/09/25 00:37:37;;;;;;;4.85;3.65;;;13.50;99.90;;;;;;4968617;28;20033;-79
2023/09/25 00:40:18;;;;;;;3.28;2.95;;;13.50;99.90;;;;;;5003009;28;20050;-79
2023/09/25 00:42:53;;;;;;;3.83;3.20;;;13.50;99.90;;;;;;5012417;28;20084;-80
2023/09/25 00:45:19;;;;;;;3.78;3.40;;;13.50;99.90;;;;;;5016814;28;20045;-79
2023/09/25 00:47:45;;;;;;;4.22;3.15;;;13.50;99.90;;;;;;4989891;28;20034;-77
2023/09/25 00:50:11;;;;;;;5.35;3.15;;;13.50;99.90;;;;;;4997001;28;20116;-79
2023/09/25 00:52:41;;;;;;;3.92;3.28;;;13.50;99.90;;;;;;5029097;28;20048;-78
2023/09/25 00:55:07;;;;;;;4.10;3.47;;;13.50;99.90;;;;;;5028865;28;20050;-78
2023/09/25 00:57:35;;;;;;;3.50;3.20;;;13.50;99.90;;;;;;4992517;28;20064;-78
2023/09/25 01:00:03;;;;;;;4.35;3.22;;;13.50;99.90;;;;;;5024976;28;20049;-78
2023/09/25 01:02:29;;;;;;;3.70;2.90;;;13.50;99.90;;;;;;5009848;28;20073;-78
2023/09/25 01:04:55;;;;;;;3.45;3.10;;;13.50;99.90;;;;;;5028928;28;20486;-78
2023/09/25 01:07:20;;;;;;;3.55;2.85;;;13.50;99.90;;;;;;4983966;28;20091;-79
2023/09/25 01:10:05;;;;;;;4.75;3.47;;;13.50;99.90;;;;;;4993314;28;20064;-78
2023/09/25 01:12:31;;;;;;;3.45;3.03;;;13.50;99.90;;;;;;5026503;28;20049;-79
2023/09/25 01:14:57;;;;;;;5.15;2.80;;;13.50;99.90;;;;;;5022444;28;20103;-78
2023/09/25 01:17:23;;;;;;;3.17;2.75;;;13.50;99.90;;;;;;5016563;28;20037;-78
2023/09/25 01:19:49;;;;;;;5.78;3.15;;;13.50;99.90;;;;;;4999495;28;20068;-79
2023/09/25 01:22:15;;;;;;;3.75;2.72;;;13.50;99.90;;;;;;4996723;28;20042;-79
2023/09/25 01:24:40;;;;;;;4.47;3.15;;;13.50;99.90;;;;;;4997463;28;20362;-78
2023/09/25 01:27:06;;;;;;;3.63;2.75;;;13.40;99.90;;;;;;5033146;28;20048;-79
2023/09/25 01:29:32;;;;;;;4.10;2.75;;;13.40;99.90;;;;;;5016333;28;20447;-79
2023/09/25 01:31:57;;;;;;;3.20;2.90;;;13.40;99.90;;;;;;5016722;28;20045;-79
2023/09/25 01:34:23;;;;;;;4.25;3.20;;;13.40;99.90;;;;;;5015266;28;20404;-78
2023/09/25 01:36:49;;;;;;;3.60;2.80;;;13.40;99.90;;;;;;4999543;28;20477;-79
2023/09/25 01:39:14;;;;;;;4.00;2.70;;;13.40;99.90;;;;;;4992547;28;20485;-79
2023/09/25 01:41:41;;;;;;;3.50;2.75;;;13.30;99.90;;;;;;5030510;28;20037;-79
2023/09/25 01:44:06;;;;;;;3.70;3.03;;;13.30;99.90;;;;;;4999278;28;20033;-78
2023/09/25 01:46:32;;;;;;;3.85;2.70;;;13.30;99.90;;;;;;5015235;28;20065;-79
2023/09/25 01:48:58;;;;;;;5.40;2.72;;;13.30;99.90;;;;;;5020747;28;20037;-79
2023/09/25 01:51:24;;;;;;;4.50;3.00;;;13.30;99.90;;;;;;4999314;28;20037;-79
2023/09/25 01:53:50;;;;;;;3.45;2.40;;;13.20;99.90;;;;;;4999549;28;20456;-79
2023/09/25 01:56:16;;;;;;;3.60;3.28;;;13.20;99.90;;;;;;5015694;28;20117;-79
2023/09/25 01:58:43;;;;;;;4.47;2.83;;;13.20;99.90;;;;;;5029130;28;20145;-79
2023/09/25 02:01:09;;;;;;;5.53;3.30;;;13.20;99.90;;;;;;4995053;28;20121;-79
2023/09/25 02:03:35;;;;;;;3.25;2.95;;;13.20;99.90;;;;;;5007039;28;20037;-79
2023/09/25 02:06:01;;;;;;;3.95;3.20;;;13.10;99.90;;;;;;5014359;28;20060;-79
2023/09/25 02:08:28;;;;;;;3.80;3.03;;;13.10;99.90;;;;;;5031447;28;20168;-78
2023/09/25 02:10:54;;;;;;;4.05;3.30;;;13.00;99.90;;;;;;4979979;28;20041;-79
2023/09/25 02:13:19;;;;;;;3.63;3.17;;;13.00;99.90;;;;;;4998535;28;20390;-78
2023/09/25 02:15:47;;;;;;;4.32;3.42;;;12.90;99.90;;;;;;5014405;28;20053;-78
2023/09/25 02:18:13;;;;;;;3.35;3.05;;;12.90;99.90;;;;;;4984210;28;20038;-78
2023/09/25 02:20:38;;;;;;;4.40;3.40;;;12.80;99.90;;;;;;5024421;28;20045;-79
2023/09/25 02:23:05;;;;;;;5.22;3.38;;;12.80;99.90;;;;;;5006399;28;20049;-79
2023/09/25 02:25:31;;;;;;;4.00;3.20;;;12.80;99.90;;;;;;4998716;28;20041;-78
2023/09/25 02:27:57;;;;;;;5.15;3.30;;;12.80;99.90;;;;;;5031301;28;20477;-78
2023/09/25 02:30:22;;;;;;;4.03;3.38;;;12.80;99.90;;;;;;4985905;28;20091;-79
2023/09/25 02:32:48;;;;;;;4.20;3.72;;;12.80;99.90;;;;;;5015097;28;20081;-78
2023/09/25 02:35:14;;;;;;;3.92;3.25;;;12.80;99.90;;;;;;5014966;28;20045;-78
2023/09/25 02:37:40;;;;;;;4.45;3.40;;;12.70;99.90;;;;;;4992901;28;20037;-79
2023/09/25 02:40:13;;;;;;;5.13;3.45;;;12.80;99.90;;;;;;5014619;28;20037;-78
2023/09/25 02:42:40;;;;;;;4.18;3.78;;;12.80;99.90;;;;;;5014366;28;20497;-79
2023/09/25 02:45:06;;;;;;;4.25;3.30;;;12.80;99.90;;;;;;4998089;28;20059;-79
2023/09/25 02:47:32;;;;;;;5.13;3.42;;;12.80;99.90;;;;;;5014341;28;20041;-78
2023/09/25 02:49:57;;;;;;;4.32;3.65;;;12.80;99.90;;;;;;5015004;28;20044;-79
2023/09/25 02:52:23;;;;;;;4.70;3.55;;;12.80;99.90;;;;;;4998075;28;20390;-78
2023/09/25 02:54:49;;;;;;;4.22;3.50;;;12.80;99.90;;;;;;5013677;28;20052;-79
2023/09/25 02:57:15;;;;;;;4.28;3.47;;;12.80;99.90;;;;;;5025471;28;20497;-79
2023/09/25 02:59:41;;;;;;;3.28;2.97;;;12.80;99.90;;;;;;5007409;28;20045;-79
2023/09/25 03:02:07;;;;;;;6.25;3.75;;;12.80;99.90;;;;;;5025736;28;20053;-79
2023/09/25 03:04:33;;;;;;;4.55;3.25;;;12.80;99.90;;;;;;4997749;28;20041;-78
2023/09/25 03:06:58;;;;;;;4.38;3.63;;;12.80;99.90;;;;;;5014280;28;20269;-79
2023/09/25 03:09:25;;;;;;;3.75;3.13;;;12.80;99.90;;;;;;5030224;28;20117;-78
2023/09/25 03:11:51;;;;;;;3.85;3.45;;;12.70;99.90;;;;;;5010294;28;20046;-78
2023/09/25 03:14:16;;;;;;;4.47;3.45;;;12.70;99.90;;;;;;5013915;28;20041;-79
2023/09/25 03:16:42;;;;;;;3.53;3.22;;;12.70;99.90;;;;;;5030656;28;20042;-79
2023/09/25 03:19:08;;;;;;;3.60;3.10;;;12.70;99.90;;;;;;4997835;28;20106;-78
2023/09/25 03:21:33;;;;;;;4.35;3.35;;;12.70;99.90;;;;;;5014132;28;20046;-79
2023/09/25 03:23:59;;;;;;;4.88;3.72;;;12.70;99.90;;;;;;4996228;28;20042;-78
2023/09/25 03:26:25;;;;;;;4.35;3.80;;;12.60;99.90;;;;;;4997861;28;20037;-78
2023/09/25 03:28:50;;;;;;;7.10;3.63;;;12.60;99.90;;;;;;5013153;28;20060;-79
2023/09/25 03:31:16;;;;;;;5.53;3.60;;;12.60;99.90;;;;;;5030520;28;20045;-79
2023/09/25 03:33:45;;;;;;;5.82;3.40;;;12.60;99.90;;;;;;5030151;28;20436;-79
2023/09/25 03:36:11;;;;;;;3.70;3.40;;;12.60;99.90;;;;;;5013940;28;20072;-79
2023/09/25 03:38:37;;;;;;;4.47;3.33;;;12.50;99.90;;;;;;5030575;28;20073;-78
2023/09/25 03:41:03;;;;;;;4.72;3.42;;;12.50;99.90;;;;;;5012689;28;20439;-79
2023/09/25 03:43:29;;;;;;;4.07;3.67;;;12.50;99.90;;;;;;5009931;28;20504;-79
2023/09/25 03:45:55;;;;;;;4.22;3.83;;;12.50;99.90;;;;;;4989347;28;20042;-78
2023/09/25 03:48:21;;;;;;;4.18;3.78;;;12.50;99.90;;;;;;5007536;28;20536;-78
2023/09/25 03:50:47;;;;;;;4.45;3.60;;;12.50;99.90;;;;;;4997195;28;20164;-78
2023/09/25 03:53:12;;;;;;;4.38;3.58;;;12.50;99.90;;;;;;5013401;28;20339;-78
2023/09/25 03:55:39;;;;;;;5.03;3.35;;;12.50;99.90;;;;;;5013675;28;20029;-78
2023/09/25 03:58:05;;;;;;;5.50;4.15;;;12.50;99.90;;;;;;5030225;28;20037;-79
2023/09/25 04:00:30;;;;;;;3.92;3.55;;;12.50;99.90;;;;;;4995451;28;20520;-79
2023/09/25 04:02:56;;;;;;;3.97;3.30;;;12.50;99.90;;;;;;5013534;28;20037;-78
2023/09/25 04:05:22;;;;;;;3.92;3.50;;;12.50;99.90;;;;;;4996605;28;20132;-79
2023/09/25 04:07:47;;;;;;;4.38;3.65;;;12.50;99.90;;;;;;5008476;28;20496;-79
2023/09/25 04:10:13;;;;;;;6.82;3.60;;;12.50;99.90;;;;;;4991114;28;20474;-78
2023/09/25 04:12:39;;;;;;;4.97;3.58;;;12.50;99.90;;;;;;4993587;28;20046;-78
2023/09/25 04:15:08;;;;;;;4.35;3.67;;;12.50;99.90;;;;;;5012313;28;20120;-78
2023/09/25 04:17:34;;;;;;;3.92;3.38;;;12.60;99.90;;;;;;5013269;28;20044;-77
2023/09/25 04:20:01;;;;;;;5.50;3.85;;;12.60;99.90;;;;;;4996737;28;20477;-78
2023/09/25 04:22:27;;;;;;;3.90;3.50;;;12.60;99.90;;;;;;5013171;28;20041;-78
2023/09/25 04:24:52;;;;;;;3.90;3.50;;;12.60;99.90;;;;;;5012689;28;20037;-77
2023/09/25 04:27:18;;;;;;;4.85;3.50;;;12.60;99.90;;;;;;5012807;28;20091;-78
2023/09/25 04:29:45;;;;;;;5.40;3.80;;;12.60;99.90;;;;;;4989674;28;20026;-78
2023/09/25 04:32:11;;;;;;;5.60;3.92;;;12.60;99.90;;;;;;5027938;28;20049;-77
2023/09/25 04:34:37;;;;;;;4.60;3.92;;;12.60;99.90;;;;;;5013277;28;20084;-89
2023/09/25 04:37:03;;;;;;;3.92;3.63;;;12.60;99.90;;;;;;5031455;28;20045;-86
2023/09/25 04:39:32;;;;;;;4.80;3.85;;;12.60;99.90;;;;;;5030252;28;20128;-84
2023/09/25 04:41:59;;;;;;;4.05;3.65;;;12.50;99.90;;;;;;5030947;28;20413;-88
2023/09/25 04:44:25;;;;;;;3.97;3.38;;;12.50;99.90;;;;;;5014833;28;20037;-86
2023/09/25 04:46:50;;;;;;;4.72;3.45;;;12.50;99.90;;;;;;4997779;28;20091;-88
2023/09/25 04:49:17;;;;;;;4.45;4.03;;;12.50;99.90;;;;;;5013957;28;20757;-84
2023/09/25 04:51:43;;;;;;;4.28;3.40;;;12.50;99.90;;;;;;5004311;28;20041;-85
2023/09/25 04:54:10;;;;;;;5.25;4.10;;;12.50;99.90;;;;;;4994622;28;20102;-84
2023/09/25 04:56:37;;;;;;;4.95;3.97;;;12.50;99.90;;;;;;5030337;28;20049;-87
2023/09/25 04:59:05;;;;;;;6.90;4.00;;;12.50;99.90;;;;;;5030798;28;20049;-86
2023/09/25 05:01:31;;;;;;;4.22;3.80;;;12.50;99.90;;;;;;5030815;28;20049;-88
2023/09/25 05:03:56;;;;;;;6.47;4.13;;;12.40;99.90;;;;;;5014345;28;20041;-83
2023/09/25 05:06:22;;;;;;;4.57;3.65;;;12.40;99.90;;;;;;5030692;28;20405;-86
2023/09/25 05:08:48;;;;;;;4.65;3.83;;;12.40;99.90;;;;;;5014280;28;20120;-87
2023/09/25 05:11:14;;;;;;;4.78;4.13;;;12.30;99.90;;;;;;5030834;28;20076;-88
2023/09/25 05:13:39;;;;;;;4.20;3.58;;;12.30;99.90;;;;;;5004560;28;20077;-88
2023/09/25 05:16:05;;;;;;;5.70;4.05;;;12.30;99.90;;;;;;4997871;28;20049;-89
2023/09/25 05:18:31;;;;;;;5.28;3.85;;;12.30;99.90;;;;;;5014313;28;20068;-85
2023/09/25 05:20:58;;;;;;;5.55;3.90;;;12.30;99.90;;;;;;5030329;28;20116;-87
2023/09/25 05:23:24;;;;;;;4.30;3.90;;;12.30;99.90;;;;;;4998183;28;20370;-86
2023/09/25 05:25:50;;;;;;;6.68;4.53;;;12.30;99.90;;;;;;5031145;28;20037;-85
2023/09/25 05:28:15;;;;;;;5.00;4.07;;;12.30;99.90;;;;;;5013880;28;20501;-84
2023/09/25 05:30:41;;;;;;;4.30;3.90;;;12.30;99.90;;;;;;5013919;28;20045;-86
2023/09/25 05:33:07;;;;;;;4.60;3.95;;;12.30;99.90;;;;;;5013663;28;20112;-87
2023/09/25 05:35:33;;;;;;;4.38;3.97;;;12.30;99.90;;;;;;5013839;28;20045;-87
2023/09/25 05:37:58;;;;;;;4.25;3.85;;;12.30;99.90;;;;;;4981419;28;20060;-87
2023/09/25 05:40:24;;;;;;;5.15;3.78;;;12.30;99.90;;;;;;5013858;28;20053;-88
2023/09/25 05:42:50;;;;;;;6.45;3.88;;;12.30;99.90;;;;;;4994000;28;20038;-86
2023/09/25 05:45:20;;;;;;;4.88;3.90;;;12.30;99.90;;;;;;5010729;28;20038;-87
2023/09/25 05:47:46;;;;;;;4.75;4.10;;;12.30;99.90;;;;;;4994410;28;20087;-87
2023/09/25 05:50:12;;;;;;;5.18;3.78;;;12.30;99.90;;;;;;5021903;28;20120;-87
2023/09/25 05:52:39;;;;;;;5.13;4.40;;;12.30;99.90;;;;;;5033127;28;20048;-87
2023/09/25 05:55:06;;;;;;;4.32;3.92;;;12.30;99.90;;;;;;5018520;28;20048;-88
2023/09/25 05:57:33;;;;;;;6.78;4.00;;;12.30;99.90;;;;;;5034065;28;20052;-87
2023/09/25 06:00:03;;;;;;;4.88;3.78;;;12.30;99.90;;;;;;5018292;28;20045;-87
2023/09/25 06:02:33;;;;;;;5.72;3.80;;;12.30;99.90;;;;;;5018257;28;20046;-87
2023/09/25 06:04:59;;;;;;;4.78;4.05;;;12.30;99.90;;;;;;5033462;28;20118;-88
2023/09/25 06:07:24;;;;;;;5.00;3.92;;;12.30;99.90;;;;;;5033487;28;20053;-86
2023/09/25 06:09:50;;;;;;;6.53;3.97;;;12.30;99.90;;;;;;5017194;28;20037;-88
2023/09/25 06:12:16;;;;;;;4.93;4.13;;;12.30;99.90;;;;;;5017158;28;20041;-88
2023/09/25 06:14:42;;;;;;;6.18;4.18;;;12.30;99.90;;;;;;5016661;28;20056;-85
2023/09/25 06:17:09;;;;;;;4.45;4.10;;;12.40;99.90;;;;;;5015978;28;20052;-85
2023/09/25 06:19:36;;;;;;;5.35;4.50;;;12.40;99.90;;;;;;5009247;28;20038;-86
2023/09/25 06:22:02;;;;;;;6.30;4.25;;;12.40;99.90;;;;;;5010140;28;20541;-86
2023/09/25 06:24:27;;;;;;;5.57;4.30;;;12.40;99.90;;;;;;5020433;28;20120;-86
2023/09/25 06:26:53;;;;;;;4.30;3.90;;;12.40;99.90;;;;;;5032002;28;20037;-87
2023/09/25 06:29:21;;;;;;;6.55;4.38;;;12.50;99.90;;;;;;5001547;28;20477;-88
2023/09/25 06:31:47;;;;;;;5.28;4.30;;;12.50;99.90;;;;;;5006173;28;20041;-89
2023/09/25 06:34:13;;;;;;;6.05;3.97;;;12.50;99.90;;;;;;5015933;28;20473;-86
2023/09/25 06:36:39;;;;;;;5.82;4.00;;;12.50;99.90;;;;;;5015508;28;20037;-87
2023/09/25 06:39:09;;;;;;;4.45;4.00;;;12.60;99.90;;;;;;5034139;28;20052;-85
2023/09/25 06:41:40;;;;;;;4.53;4.13;;;12.60;99.90;;;;;;5017645;28;20041;-85
2023/09/25 06:44:07;;;;;;;4.25;3.60;;;12.70;99.90;;;;;;5000168;28;20052;-86
2023/09/25 06:46:33;;;;;;;3.97;3.55;;;12.70;99.90;;;;;;5032362;28;20048;-88
2023/09/25 06:49:02;;;;;;;7.15;3.92;;;12.80;99.90;;;;;;5032582;28;20042;-85
2023/09/25 06:51:31;;;;;;;6.53;3.47;;;12.90;99.90;;;;;;5031912;28;20053;-89
2023/09/25 06:53:57;;;;;;;5.60;4.03;;;12.90;99.90;;;;;;5032610;28;20052;-85
2023/09/25 06:56:23;;;;;;;5.50;3.58;;;13.00;99.90;;;;;;5015916;28;20046;-87
2023/09/25 06:58:48;;;;;;;5.20;3.38;;;13.00;99.90;;;;;;5006317;28;20409;-87
2023/09/25 07:01:14;;;;;;;5.95;3.38;;;13.10;99.90;;;;;;5025301;28;20045;-85
2023/09/25 07:03:40;;;;;;;4.88;3.55;;;13.20;99.90;;;;;;5014463;28;20041;-85
2023/09/25 07:06:06;;;;;;;4.18;3.38;;;13.30;99.90;;;;;;5014664;28;20041;-87
2023/09/25 07:08:32;;;;;;;5.20;3.70;;;13.40;99.90;;;;;;4999861;28;20476;-88
2023/09/25 07:10:58;;;;;;;6.85;3.58;;;13.50;99.90;;;;;;5016408;28;20045;-86
2023/09/25 07:13:24;;;;;;;4.25;3.35;;;13.50;99.90;;;;;;5032606;28;20568;-87
2023/09/25 07:15:50;;;;;;;3.75;3.13;;;13.60;99.90;;;;;;5020483;28;20045;-87
2023/09/25 07:18:17;;;;;;;5.47;3.00;;;13.60;99.90;;;;;;5009383;28;20051;-86
2023/09/25 07:20:45;;;;;;;3.72;3.13;;;13.70;99.90;;;;;;5032580;28;20103;-87
2023/09/25 07:23:11;;;;;;;6.30;3.60;;;13.80;99.90;;;;;;5000211;28;20092;-89
2023/09/25 07:25:37;;;;;;;5.68;3.13;;;13.80;99.90;;;;;;5033223;28;20073;-89
2023/09/25 07:28:03;;;;;;;3.38;3.03;;;13.80;99.90;;;;;;4994007;28;20073;-89
2023/09/25 07:30:29;;;;;;;4.80;2.92;;;13.90;99.90;;;;;;5016973;28;20033;-87
2023/09/25 07:32:55;;;;;;;4.05;3.13;;;13.90;99.90;;;;;;5013916;28;20521;-89
2023/09/25 07:35:21;;;;;;;4.80;3.83;;;14.00;99.90;;;;;;5030976;28;20045;-88
2023/09/25 07:37:47;;;;;;;4.50;3.45;;;14.10;99.90;;;;;;5014655;28;20130;-89
2023/09/25 07:40:14;;;;;;;5.18;3.60;;;14.10;99.90;;;;;;5031730;28;20118;-88
2023/09/25 07:42:40;;;;;;;4.82;3.55;;;14.20;99.90;;;;;;5031293;28;20036;-86
2023/09/25 07:45:11;;;;;;;4.75;3.50;;;14.20;99.90;;;;;;5014448;28;20045;-90
2023/09/25 07:47:41;;;;;;;4.47;3.40;;;14.30;99.90;;;;;;5031453;28;20675;-89
2023/09/25 07:50:10;;;;;;;4.93;3.45;;;14.30;99.90;;;;;;5028728;28;20280;-90
2023/09/25 07:52:38;;;;;;;5.10;3.10;;;14.40;99.90;;;;;;5002327;28;20057;-90
2023/09/25 07:55:07;;;;;;;3.65;3.13;;;14.40;99.90;;;;;;4979849;28;20038;-88
2023/09/25 07:57:35;;;;;;;3.97;2.80;;;14.50;99.90;;;;;;5014544;28;20520;-88
2023/09/25 08:00:10;;;;;;;4.03;2.75;;;14.50;99.90;;;;;;4995714;28;20559;-87
2023/09/25 08:02:39;;;;;;;4.78;3.25;;;14.60;99.90;;;;;;4980721;28;20508;-85
2023/09/25 08:05:05;;;;;;;4.53;3.17;;;14.70;99.90;;;;;;5027802;28;20037;-87
2023/09/25 08:07:31;;;;;;;5.03;3.03;;;14.70;99.90;;;;;;5026030;28;20060;-89
2023/09/25 08:09:57;;;;;;;6.05;3.10;;;14.80;99.90;;;;;;5022201;28;20033;-86
2023/09/25 08:12:23;;;;;;;4.15;2.95;;;14.80;99.90;;;;;;4982302;28;20045;-86
2023/09/25 08:14:49;;;;;;;4.03;3.05;;;14.90;99.90;;;;;;5014135;28;20662;-86
2023/09/25 08:17:15;;;;;;;4.53;3.38;;;14.90;99.90;;;;;;5030316;28;20398;-89
2023/09/25 08:19:40;;;;;;;4.05;3.00;;;14.90;99.90;;;;;;5031669;28;20047;-86
2023/09/25 08:22:07;;;;;;;3.80;2.72;;;15.00;99.90;;;;;;4996981;28;20132;-89
2023/09/25 08:24:33;;;;;;;3.55;2.67;;;15.10;99.90;;;;;;4991403;28;20045;-90
2023/09/25 08:26:59;;;;;;;5.35;2.97;;;15.20;99.90;;;;;;5027694;28;20049;-87
2023/09/25 08:29:25;;;;;;;4.40;3.25;;;15.40;99.90;;;;;;5009681;28;20805;-86
2023/09/25 08:31:52;;;;;;;4.07;2.60;;;15.50;99.90;;;;;;5032632;28;20080;-90
2023/09/25 08:34:19;;;;;;;5.15;2.80;;;15.60;99.90;;;;;;5015124;28;20576;-89
2023/09/25 08:36:44;;;;;;;3.50;2.75;;;15.80;99.90;;;;;;5008339;28;20045;-85
2023/09/25 08:39:13;;;;;;;4.68;2.95;;;15.80;99.90;;;;;;4998002;28;20041;-86
2023/09/25 08:41:40;;;;;;;4.22;2.85;;;15.80;99.90;;;;;;5030713;28;20060;-85
2023/09/25 08:44:06;;;;;;;3.10;2.80;;;15.90;99.90;;;;;;5027719;28;20052;-88
2023/09/25 08:46:32;;;;;;;3.08;2.50;;;15.90;99.90;;;;;;5029211;28;20037;-87
2023/09/25 08:48:59;;;;;;;3.72;2.42;;;15.90;99.90;;;;;;5014376;28;20041;-87
2023/09/25 08:51:25;;;;;;;3.33;2.72;;;16.00;99.90;;;;;;4992505;28;20042;-87
2023/09/25 08:53:52;;;;;;;3.05;2.75;;;15.90;99.90;;;;;;5030502;28;20044;-86
2023/09/25 08:56:20;;;;;;;4.18;2.40;;;16.10;99.90;;;;;;5031338;28;20049;-86
2023/09/25 08:58:47;;;;;;;4.85;2.78;;;16.10;99.90;;;;;;5015392;28;20438;-87
2023/09/25 09:01:14;;;;;;;7.15;2.83;;;16.20;99.90;;;;;;5016471;28;20164;-86
2023/09/25 09:03:40;;;;;;;2.63;2.40;;;16.20;99.90;;;;;;5012134;28;20038;-87
2023/09/25 09:06:05;;;;;;;4.60;2.65;;;16.30;99.90;;;;;;5007307;28;20051;-89
2023/09/25 09:08:31;;;;;;;3.40;2.10;;;16.40;99.90;;;;;;5014520;28;20052;-87
2023/09/25 09:10:57;;;;;;;5.63;2.70;;;16.40;99.90;;;;;;5013940;28;20072;-87
2023/09/25 09:13:23;;;;;;;4.07;2.22;;;16.50;99.90;;;;;;5003210;28;20057;-89
2023/09/25 09:15:49;;;;;;;5.15;2.42;;;16.50;99.90;;;;;;5016900;28;20037;-89
2023/09/25 09:18:25;;;;;;;5.18;2.55;;;16.70;99.90;;;;;;4998805;28;20037;-86
2023/09/25 09:20:51;;;;;;;3.40;2.42;;;16.80;99.90;;;;;;5014784;28;20115;-87
2023/09/25 09:23:17;;;;;;;3.47;2.45;;;16.90;99.90;;;;;;5030158;28;20076;-88
2023/09/25 09:25:48;;;;;;;2.40;2.20;;;17.00;99.90;;;;;;5031475;28;20060;-89
2023/09/25 09:28:13;;;;;;;4.05;2.30;;;17.00;99.90;;;;;;5018620;28;20041;-90
2023/09/25 09:30:41;;;;;;;3.55;2.70;;;16.90;99.90;;;;;;5018355;28;20037;-87
2023/09/25 09:33:08;;;;;;;4.45;2.45;;;16.90;99.90;;;;;;5018666;28;20037;-88
2023/09/25 09:35:34;;;;;;;5.40;2.80;;;16.90;99.90;;;;;;5034862;28;20041;-86
2023/09/25 09:38:04;;;;;;;4.88;2.47;;;16.90;99.90;;;;;;5034603;28;20121;-87
2023/09/25 09:40:30;;;;;;;5.75;2.72;;;16.90;99.90;;;;;;5034545;28;20152;-87
2023/09/25 09:42:57;;;;;;;3.63;2.08;;;16.80;99.90;;;;;;5001687;28;20088;-89
2023/09/25 09:45:23;;;;;;;3.45;2.30;;;16.90;99.90;;;;;;5018170;28;20064;-87
2023/09/25 09:47:50;;;;;;;4.55;2.90;;;17.00;99.90;;;;;;5035032;28;20033;-89
2023/09/25 09:50:26;;;;;;;2.72;2.33;;;17.10;99.90;;;;;;5018233;28;20429;-87
2023/09/25 09:52:52;;;;;;;4.75;2.63;;;17.20;99.90;;;;;;5017606;28;20048;-86
2023/09/25 09:55:21;;;;;;;3.38;2.33;;;17.30;99.90;;;;;;5005364;28;20050;-88
2023/09/25 09:57:49;;;;;;;6.90;2.60;;;17.40;99.90;;;;;;4998939;28;20053;-90
2023/09/25 10:00:16;;;;;;;3.80;2.22;;;17.50;99.90;;;;;;5030678;28;20045;-89
2023/09/25 10:02:43;;;;;;;3.85;2.30;;;17.60;99.90;;;;;;4983507;28;20042;-88
2023/09/25 10:05:17;;;;;;;44.95;7.28;;;17.70;99.90;;;;;;4991737;28;20041;-86
2023/09/25 10:08:06;;;;;;;5.05;2.17;;;17.90;99.90;;;;;;5018284;28;20052;-88
2023/09/25 10:10:33;;;;;;;3.97;2.22;;;18.00;99.90;;;;;;5027620;28;20550;-86
2023/09/25 10:12:59;;;;;;;5.80;2.47;;;18.10;99.90;;;;;;5018644;28;20129;-88
2023/09/25 10:15:25;;;;;;;3.53;2.15;;;18.10;99.90;;;;;;4985174;28;20132;-90
2023/09/25 10:17:52;;;;;;;2.70;2.17;;;18.20;99.90;;;;;;5034057;28;20094;-86
2023/09/25 10:20:30;;;;;;;3.88;2.47;;;18.30;99.90;;;;;;5017904;28;20045;-88
2023/09/25 10:23:09;;;;;;;3.85;2.58;;;18.40;99.90;;;;;;5032833;28;20057;-89
2023/09/25 10:25:54;;;;;;;3.55;2.15;;;18.50;99.90;;;;;;5031432;28;20445;-87
2023/09/25 10:28:29;;;;;;;3.30;2.20;;;18.60;99.90;;;;;;5011002;28;20037;-92
2023/09/25 10:31:02;;;;;;;2.95;2.15;;;18.60;99.90;;;;;;5015585;28;20041;-89
2023/09/25 10:33:33;;;;;;;2.92;2.10;;;18.60;99.90;;;;;;5001368;28;20053;-89
2023/09/25 10:36:05;;;;;;;4.40;2.15;;;18.70;99.90;;;;;;5017862;28;20128;-87
2023/09/25 10:38:34;;;;;;;3.70;1.90;;;18.70;99.90;;;;;;5029623;28;20446;-88
2023/09/25 10:41:07;;;;;;;4.93;2.65;;;18.80;99.90;;;;;;5033447;28;20099;-87
2023/09/25 10:43:34;;;;;;;3.90;2.17;;;18.80;99.90;;;;;;5016818;28;20075;-87
2023/09/25 10:46:01;;;;;;;4.20;2.50;;;18.80;99.90;;;;;;5016569;28;20381;-87
2023/09/25 10:48:28;;;;;;;3.03;2.22;;;18.80;99.90;;;;;;5021951;28;20064;-86
2023/09/25 10:50:54;;;;;;;3.75;2.33;;;18.80;99.90;;;;;;4989981;28;20076;-86
2023/09/25 10:53:23;;;;;;;3.60;2.10;;;18.80;99.90;;;;;;4999266;28;20080;-88
2023/09/25 10:55:49;;;;;;;3.42;2.38;;;18.90;99.90;;;;;;5031127;28;20037;-88
2023/09/25 10:58:17;;;;;;;4.80;2.47;;;18.90;99.90;;;;;;5032740;28;20120;-87
2023/09/25 11:00:45;;;;;;;3.97;2.42;;;19.00;99.90;;;;;;4997548;28;20065;-87
2023/09/25 11:03:10;;;;;;;5.63;2.30;;;19.00;99.90;;;;;;5029901;28;20501;-89
2023/09/25 11:05:38;;;;;;;3.00;2.33;;;19.00;99.90;;;;;;5025545;28;20344;-87
2023/09/25 11:08:05;;;;;;;3.40;2.10;;;19.00;99.90;;;;;;5030562;28;20045;-89
2023/09/25 11:10:34;;;;;;;3.33;2.30;;;19.00;99.90;;;;;;5009095;28;20052;-89
2023/09/25 11:13:00;;;;;;;4.43;2.53;;;19.10;99.90;;;;;;5026529;28;20178;-91
2023/09/25 11:15:28;;;;;;;4.13;2.20;;;19.00;99.90;;;;;;4988373;28;20536;-88
2023/09/25 11:17:59;;;;;;;3.67;2.38;;;19.10;99.90;;;;;;5023009;28;20042;-87
2023/09/25 11:20:29;;;;;;;4.03;2.40;;;19.20;99.90;;;;;;5008385;28;20120;-86
2023/09/25 11:23:16;;;;;;;3.15;2.08;;;19.20;99.90;;;;;;5004194;28;20409;-90
2023/09/25 11:25:46;;;;;;;4.40;2.42;;;19.30;99.90;;;;;;4993892;28;20037;-87
2023/09/25 11:28:17;;;;;;;4.43;2.40;;;19.30;99.90;;;;;;4989674;28;20037;-88
2023/09/25 11:30:46;;;;;;;3.50;2.35;;;19.30;99.90;;;;;;5021202;28;20045;-90
2023/09/25 11:33:15;;;;;;;3.75;2.30;;;19.40;99.90;;;;;;5008232;28;20128;-88
2023/09/25 11:35:41;;;;;;;3.55;2.30;;;19.40;99.90;;;;;;5002948;28;20045;-89
2023/09/25 11:38:20;;;;;;;3.85;2.50;;;19.50;99.90;;;;;;5005841;28;20042;-91
2023/09/25 11:40:46;;;;;;;3.22;2.25;;;19.50;99.90;;;;;;5021945;28;20510;-88
2023/09/25 11:43:13;;;;;;;4.00;2.50;;;19.50;99.90;;;;;;5025161;28;20069;-89
2023/09/25 11:45:40;;;;;;;4.00;2.60;;;19.60;99.90;;;;;;5005465;28;20037;-88
2023/09/25 11:48:08;;;;;;;3.15;2.30;;;19.60;99.90;;;;;;5020492;28;20038;-87
2023/09/25 11:50:34;;;;;;;4.63;2.28;;;19.60;99.90;;;;;;4991181;28;20048;-90
2023/09/25 11:53:00;;;;;;;3.22;2.50;;;19.60;99.90;;;;;;4990528;28;20033;-89
2023/09/25 11:55:28;;;;;;;5.00;2.85;;;19.70;99.90;;;;;;5007700;28;20041;-89
2023/09/25 11:57:54;;;;;;;4.38;2.17;;;19.70;99.90;;;;;;5007203;28;20102;-88
2023/09/25 12:00:22;;;;;;;6.22;2.70;;;19.80;99.90;;;;;;5006427;28;20042;-87
2023/09/25 12:02:49;;;;;;;3.45;2.40;;;19.80;99.90;;;;;;4998353;28;20405;-89
2023/09/25 12:05:16;;;;;;;2.92;2.35;;;19.90;99.90;;;;;;5009183;28;20412;-87
2023/09/25 12:07:43;;;;;;;5.30;2.42;;;20.00;99.90;;;;;;5021351;28;20077;-88
2023/09/25 12:10:12;;;;;;;3.35;2.65;;;20.00;99.90;;;;;;5009602;28;20041;-90
2023/09/25 12:12:39;;;;;;;2.83;2.25;;;20.10;99.90;;;;;;4977402;28;20053;-89
2023/09/25 12:15:09;;;;;;;4.85;2.80;;;20.10;99.90;;;;;;5007633;28;20094;-90
2023/09/25 12:17:35;;;;;;;3.85;2.45;;;20.20;99.90;;;;;;4980857;28;20114;-89
2023/09/25 12:20:11;;;;;;;4.85;2.92;;;20.20;99.90;;;;;;4991850;28;20081;-90
2023/09/25 12:22:39;;;;;;;3.17;2.30;;;20.30;99.90;;;;;;5008338;28;20041;-88
2023/09/25 12:25:09;;;;;;;4.15;2.70;;;20.30;99.90;;;;;;5022245;28;20557;-88
2023/09/25 12:27:36;;;;;;;4.55;2.80;;;20.30;99.90;;;;;;4990529;28;20100;-91
2023/09/25 12:30:03;;;;;;;3.33;2.30;;;20.30;99.90;;;;;;5021800;28;20033;-89
2023/09/25 12:32:29;;;;;;;3.15;2.67;;;20.30;99.90;;;;;;5020738;28;20104;-87
2023/09/25 12:34:55;;;;;;;5.10;2.80;;;20.30;99.90;;;;;;5004589;28;20069;-87
2023/09/25 12:37:21;;;;;;;4.15;2.83;;;20.40;99.90;;;;;;5022623;28;20065;-88
2023/09/25 12:39:47;;;;;;;5.18;2.90;;;20.40;99.90;;;;;;4975604;28;20037;-88
2023/09/25 12:42:13;;;;;;;3.78;2.47;;;20.40;99.90;;;;;;4988409;28;20079;-87
2023/09/25 12:44:39;;;;;;;6.22;4.53;;;20.40;99.90;;;;;;4987802;28;20149;-91
2023/09/25 12:47:05;;;;;;;2.90;2.42;;;20.30;99.90;;;;;;4988703;28;20037;-90